createdAt,value
2023-04-14T00:00:10.831Z,11.52
2023-04-14T00:02:44.234Z,11.10
2023-04-14T00:05:13.438Z,12.23
2023-04-14T00:07:42.005Z,12.52
2023-04-14T00:10:11.943Z,11.35
2023-04-14T00:12:41.025Z,13.63
2023-04-14T00:15:11.139Z,12.43
2023-04-14T00:17:40.292Z,11.70
2023-04-14T00:20:12.221Z,10.82
2023-04-14T00:22:40.910Z,11.18
2023-04-14T00:25:10.804Z,10.57
2023-04-14T00:27:39.799Z,11.48
2023-04-14T00:32:40.863Z,11.23
2023-04-14T00:35:11.547Z,11.15
2023-04-14T00:37:40.638Z,11.15
2023-04-14T00:40:11.141Z,18.13
2023-04-14T00:42:44.409Z,10.13
2023-04-14T00:45:14.334Z,9.80
2023-04-14T00:47:47.046Z,13.23
2023-04-14T00:50:19.076Z,11.52
2023-04-14T00:52:49.443Z,11.18
2023-04-14T00:55:21.423Z,11.68
2023-04-14T00:57:51.256Z,10.00
2023-04-14T01:00:20.496Z,10.63
2023-04-14T01:02:49.788Z,11.40
2023-04-14T01:05:22.510Z,10.98
2023-04-14T01:07:51.946Z,10.52
2023-04-14T01:10:21.229Z,10.00
2023-04-14T01:13:10.143Z,10.07
2023-04-14T01:15:43.066Z,10.32
2023-04-14T01:18:19.792Z,12.30
2023-04-14T01:20:53.180Z,12.57
2023-04-14T01:23:25.010Z,10.98
2023-04-14T01:26:21.686Z,10.90
2023-04-14T01:29:15.960Z,12.70
2023-04-14T01:31:49.485Z,12.52
2023-04-14T01:34:24.135Z,10.98
2023-04-14T01:36:57.342Z,11.57
2023-04-14T01:39:32.211Z,12.98
2023-04-14T01:42:02.195Z,15.15
2023-04-14T01:44:31.878Z,12.25
2023-04-14T01:47:04.896Z,15.73
2023-04-14T01:49:35.457Z,17.65
2023-04-14T01:52:09.560Z,9.95
2023-04-14T01:54:40.329Z,12.20
2023-04-14T01:57:10.727Z,11.90
2023-04-14T02:02:12.012Z,15.02
2023-04-14T02:04:41.684Z,12.13
2023-04-14T02:07:12.788Z,12.45
2023-04-14T02:09:43.505Z,11.38
2023-04-14T02:12:13.419Z,11.80
2023-04-14T02:14:43.114Z,13.23
2023-04-14T02:17:14.354Z,11.57
2023-04-14T02:19:46.285Z,12.05
2023-04-14T02:22:15.471Z,13.07
2023-04-14T02:24:44.547Z,12.63
2023-04-14T02:27:15.986Z,12.13
2023-04-14T02:29:56.480Z,14.50
2023-04-14T02:35:03.659Z,12.95
2023-04-14T02:37:35.967Z,13.98
2023-04-14T02:40:12.942Z,12.80
2023-04-14T02:42:45.508Z,13.27
2023-04-14T02:45:17.828Z,13.60
2023-04-14T02:47:50.113Z,13.48
2023-04-14T02:50:20.181Z,17.38
2023-04-14T02:53:00.158Z,15.77
2023-04-14T02:55:34.433Z,16.20
2023-04-14T02:58:03.484Z,14.98
2023-04-14T03:00:36.636Z,18.25
2023-04-14T03:03:07.804Z,14.18
2023-04-14T03:05:39.115Z,14.40
2023-04-14T03:08:13.532Z,14.80
2023-04-14T03:10:47.501Z,15.48
2023-04-14T03:13:20.065Z,14.65
2023-04-14T03:15:50.537Z,16.52
2023-04-14T03:18:22.422Z,14.23
2023-04-14T03:20:55.961Z,17.67
2023-04-14T03:23:27.042Z,15.27
2023-04-14T03:26:01.782Z,16.08
2023-04-14T03:28:33.012Z,18.08
2023-04-14T03:31:05.591Z,19.25
2023-04-14T03:33:46.712Z,16.95
2023-04-14T03:36:18.839Z,17.02
2023-04-14T03:38:49.584Z,17.38
2023-04-14T03:41:21.460Z,16.85
2023-04-14T03:43:57.053Z,18.27
2023-04-14T03:46:26.528Z,19.73
2023-04-14T03:49:01.850Z,24.35
2023-04-14T03:51:31.607Z,20.02
2023-04-14T03:54:02.574Z,20.45
2023-04-14T03:56:32.804Z,21.35
2023-04-14T03:59:03.054Z,19.60
2023-04-14T04:01:34.694Z,23.27
2023-04-14T04:04:09.646Z,26.10
2023-04-14T04:06:40.298Z,19.95
2023-04-14T04:09:12.664Z,19.30
2023-04-14T04:11:43.875Z,20.00
2023-04-14T04:14:14.358Z,21.63
2023-04-14T04:16:45.103Z,24.05
2023-04-14T04:19:15.935Z,27.33
2023-04-14T04:21:46.421Z,20.30
2023-04-14T04:26:45.189Z,19.42
2023-04-14T04:29:14.489Z,23.95
2023-04-14T04:31:43.724Z,21.75
2023-04-14T04:34:12.898Z,26.75
2023-04-14T04:36:44.046Z,27.75
2023-04-14T04:39:14.209Z,23.35
2023-04-14T04:41:45.979Z,27.63
2023-04-14T04:44:15.409Z,27.15
2023-04-14T04:46:54.494Z,29.88
2023-04-14T04:49:27.740Z,29.55
2023-04-14T04:52:04.009Z,31.52
2023-04-14T04:54:33.098Z,33.88
2023-04-14T04:57:02.127Z,30.75
2023-04-14T04:59:31.236Z,38.65
2023-04-14T05:02:00.290Z,34.05
2023-04-14T05:04:29.058Z,33.88
2023-04-14T05:06:58.478Z,33.58
2023-04-14T05:09:28.982Z,40.13
2023-04-14T05:11:58.294Z,40.45
2023-04-14T05:14:27.869Z,42.17
2023-04-14T05:16:57.141Z,38.00
2023-04-14T05:19:26.292Z,37.03
2023-04-14T05:21:55.855Z,44.97
2023-04-14T05:24:25.163Z,35.97
2023-04-14T05:27:13.081Z,40.88
2023-04-14T05:29:43.596Z,37.28
2023-04-14T05:32:14.663Z,42.05
2023-04-14T05:34:43.288Z,43.90
2023-04-14T05:37:12.685Z,34.63
2023-04-14T05:39:41.866Z,41.67
2023-04-14T05:42:12.366Z,38.63
2023-04-14T05:44:41.426Z,36.20
2023-04-14T05:47:10.543Z,33.00
2023-04-14T05:49:39.144Z,33.63
2023-04-14T05:52:08.098Z,31.85
2023-04-14T05:54:37.076Z,30.55
2023-04-14T05:57:06.112Z,28.17
2023-04-14T05:59:36.589Z,26.92
2023-04-14T06:02:07.502Z,31.58
2023-04-14T06:04:36.312Z,30.10
2023-04-14T06:07:05.320Z,31.30
2023-04-14T06:09:34.420Z,27.25
2023-04-14T06:12:03.347Z,23.40
2023-04-14T06:14:32.319Z,27.02
2023-04-14T06:17:02.720Z,24.73
2023-04-14T06:19:31.371Z,20.38
2023-04-14T06:22:00.262Z,20.25
2023-04-14T06:24:29.429Z,18.52
2023-04-14T06:26:59.113Z,21.13
2023-04-14T06:29:28.473Z,20.65
2023-04-14T06:31:58.102Z,18.27
2023-04-14T06:34:28.463Z,18.67
2023-04-14T06:39:28.260Z,16.70
2023-04-14T06:41:57.190Z,20.70
2023-04-14T06:44:27.171Z,16.35
2023-04-14T06:46:57.164Z,28.58
2023-04-14T06:49:27.944Z,18.05
2023-04-14T06:54:25.908Z,16.00
2023-04-14T06:56:55.043Z,14.27
2023-04-14T06:59:28.036Z,18.40
2023-04-14T07:01:58.841Z,14.40
2023-04-14T07:04:29.392Z,15.48
2023-04-14T07:07:01.937Z,18.23
2023-04-14T07:09:31.092Z,14.60
2023-04-14T07:12:01.518Z,12.88
2023-04-14T07:14:32.860Z,14.73
2023-04-14T07:17:01.963Z,16.23
2023-04-14T07:19:32.715Z,19.33
2023-04-14T07:22:02.113Z,15.95
2023-04-14T07:24:31.165Z,12.30
2023-04-14T07:27:00.258Z,10.45
2023-04-14T07:29:29.446Z,12.38
2023-04-14T07:32:00.308Z,10.60
2023-04-14T07:34:28.927Z,13.43
2023-04-14T07:36:59.994Z,14.73
2023-04-14T07:39:29.569Z,12.02
2023-04-14T07:41:58.908Z,13.85
2023-04-14T07:44:28.130Z,11.40
2023-04-14T07:46:56.885Z,14.20
2023-04-14T07:49:26.003Z,8.85
2023-04-14T07:51:55.019Z,7.10
2023-04-14T07:54:25.628Z,10.03
2023-04-14T07:56:54.536Z,13.63
2023-04-14T07:59:23.457Z,12.25
2023-04-14T08:01:52.319Z,11.63
2023-04-14T08:04:21.485Z,8.43
2023-04-14T08:06:50.564Z,15.87
2023-04-14T08:09:19.497Z,6.50
2023-04-14T08:11:49.922Z,7.47
2023-04-14T08:14:19.082Z,9.35
2023-04-14T08:16:47.925Z,7.55
2023-04-14T08:19:17.032Z,8.10
2023-04-14T08:21:46.153Z,10.57
2023-04-14T08:24:15.190Z,6.33
2023-04-14T08:26:44.194Z,12.65
2023-04-14T08:29:14.545Z,8.45
2023-04-14T08:31:43.216Z,8.15
2023-04-14T08:34:12.209Z,8.80
2023-04-14T08:36:44.173Z,8.48
2023-04-14T08:39:13.223Z,13.20
2023-04-14T08:41:42.447Z,12.88
2023-04-14T08:44:11.453Z,13.63
2023-04-14T08:46:43.690Z,9.60
2023-04-14T08:49:16.375Z,9.73
2023-04-14T08:51:45.733Z,7.47
2023-04-14T08:54:15.603Z,7.60
2023-04-14T08:56:45.045Z,7.90
2023-04-14T08:59:13.987Z,10.43
2023-04-14T09:01:44.152Z,7.68
2023-04-14T09:04:15.423Z,6.85
2023-04-14T09:06:44.623Z,8.82
2023-04-14T09:09:14.022Z,7.82
2023-04-14T09:11:43.087Z,8.77
2023-04-14T09:14:12.687Z,6.32
2023-04-14T09:16:41.189Z,6.17
2023-04-14T09:19:12.087Z,13.68
2023-04-14T09:21:53.428Z,8.95
2023-04-14T09:24:30.298Z,6.40
2023-04-14T09:27:03.899Z,10.07
2023-04-14T09:29:33.392Z,5.97
2023-04-14T09:32:02.317Z,4.95
2023-04-14T09:34:32.604Z,4.45
2023-04-14T09:37:05.948Z,5.50
2023-04-14T09:39:35.952Z,7.00
2023-04-14T09:42:05.981Z,5.95
2023-04-14T09:44:34.925Z,4.93
2023-04-14T09:47:05.229Z,6.77
2023-04-14T09:49:35.769Z,7.18
2023-04-14T09:52:08.536Z,4.47
2023-04-14T09:54:37.851Z,4.75
2023-04-14T09:57:07.654Z,6.53
2023-04-14T09:59:38.563Z,4.57
2023-04-14T10:02:08.594Z,4.78
2023-04-14T10:04:39.191Z,5.53
2023-04-14T10:07:09.107Z,7.22
2023-04-14T10:09:40.875Z,4.70
2023-04-14T10:12:12.578Z,5.00
2023-04-14T10:14:42.270Z,5.40
2023-04-14T10:17:11.910Z,5.18
2023-04-14T10:19:42.285Z,5.47
2023-04-14T10:22:11.358Z,8.65
2023-04-14T10:24:41.770Z,12.03
2023-04-14T10:27:13.285Z,5.93
2023-04-14T10:29:42.523Z,6.47
2023-04-14T10:32:15.188Z,5.97
2023-04-14T10:34:56.823Z,8.88
2023-04-14T10:37:26.574Z,7.68
2023-04-14T10:42:25.684Z,7.03
2023-04-14T10:45:05.003Z,4.70
2023-04-14T10:47:35.605Z,6.25
2023-04-14T10:50:18.325Z,9.90
2023-04-14T10:52:56.056Z,6.82
2023-04-14T10:55:26.112Z,7.85
2023-04-14T10:58:06.786Z,6.13
2023-04-14T11:00:39.622Z,4.72
2023-04-14T11:03:11.715Z,4.57
2023-04-14T11:05:46.288Z,8.35
2023-04-14T11:08:16.440Z,4.95
2023-04-14T11:11:03.091Z,6.75
2023-04-14T11:13:33.305Z,9.60
2023-04-14T11:16:05.222Z,6.97
2023-04-14T11:18:37.204Z,7.00
2023-04-14T11:21:08.733Z,6.55
2023-04-14T11:23:38.666Z,8.27
2023-04-14T11:26:08.875Z,5.22
2023-04-14T11:31:08.492Z,8.43
2023-04-14T11:33:41.315Z,5.88
2023-04-14T11:36:13.028Z,6.15
2023-04-14T11:38:42.138Z,4.78
2023-04-14T11:41:11.307Z,5.53
2023-04-14T11:43:46.464Z,5.38
2023-04-14T11:46:15.885Z,6.25
2023-04-14T11:48:45.682Z,7.47
2023-04-14T11:51:16.330Z,7.45
2023-04-14T11:53:45.392Z,7.20
2023-04-14T11:56:15.433Z,3.92
2023-04-14T11:58:44.276Z,12.18
2023-04-14T12:01:15.127Z,8.10
2023-04-14T12:03:44.442Z,3.90
2023-04-14T12:06:16.567Z,4.00
2023-04-14T12:08:50.638Z,5.15
2023-04-14T12:11:19.724Z,5.82
2023-04-14T12:13:49.179Z,5.90
2023-04-14T12:18:47.718Z,6.38
2023-04-14T12:21:21.473Z,4.10
2023-04-14T12:23:50.712Z,6.65
2023-04-14T12:26:20.466Z,4.60
2023-04-14T12:28:56.933Z,6.85
2023-04-14T12:31:30.660Z,4.93
2023-04-14T12:34:04.322Z,4.82
2023-04-14T12:36:48.021Z,7.15
2023-04-14T12:39:18.508Z,8.80
2023-04-14T12:41:47.953Z,2.90
2023-04-14T12:44:17.838Z,6.55
2023-04-14T12:46:50.551Z,3.78
2023-04-14T12:49:36.289Z,7.82
2023-04-14T12:52:08.523Z,2.90
2023-04-14T12:54:48.957Z,3.38
2023-04-14T12:57:18.166Z,3.13
2023-04-14T12:59:47.183Z,6.37
2023-04-14T13:02:16.361Z,2.58
2023-04-14T13:04:45.075Z,9.43
2023-04-14T13:07:16.292Z,5.43
2023-04-14T13:09:45.264Z,6.78
2023-04-14T13:12:14.311Z,2.47
2023-04-14T13:14:43.307Z,3.40
2023-04-14T13:17:13.553Z,3.17
2023-04-14T13:19:42.388Z,2.83
2023-04-14T13:22:11.582Z,4.57
2023-04-14T13:24:43.476Z,6.63
2023-04-14T13:27:12.863Z,6.18
2023-04-14T13:29:42.414Z,2.47
2023-04-14T13:32:11.910Z,4.13
2023-04-14T13:34:41.413Z,9.73
2023-04-14T13:39:39.312Z,3.70
2023-04-14T13:42:09.923Z,9.18
2023-04-14T13:44:40.445Z,6.35
2023-04-14T13:47:10.357Z,5.07
2023-04-14T13:49:38.953Z,6.38
2023-04-14T13:52:08.077Z,4.65
2023-04-14T13:54:37.337Z,5.35
2023-04-14T13:57:06.313Z,11.10
2023-04-14T13:59:36.811Z,3.40
2023-04-14T14:02:06.016Z,7.70
2023-04-14T14:04:37.088Z,7.53
2023-04-14T14:07:06.880Z,10.13
2023-04-14T14:09:36.004Z,7.32
2023-04-14T14:12:05.309Z,5.25
2023-04-14T14:14:34.792Z,3.30
2023-04-14T14:17:06.285Z,7.63
2023-04-14T14:19:35.509Z,3.25
2023-04-14T14:22:04.476Z,8.87
2023-04-14T14:24:33.558Z,4.25
2023-04-14T14:27:03.159Z,4.75
2023-04-14T14:29:32.194Z,3.88
2023-04-14T14:32:01.157Z,5.40
2023-04-14T14:34:31.189Z,3.30
2023-04-14T14:37:00.193Z,3.30
2023-04-14T14:39:32.173Z,6.17
2023-04-14T14:42:01.538Z,2.78
2023-04-14T14:44:30.673Z,3.80
2023-04-14T14:46:59.807Z,7.53
2023-04-14T14:49:28.507Z,7.45
2023-04-14T14:51:59.295Z,13.32
2023-04-14T14:54:28.183Z,11.70
2023-04-14T14:56:57.649Z,4.70
2023-04-14T14:59:27.361Z,6.35
2023-04-14T15:01:56.311Z,6.77
2023-04-14T15:04:25.917Z,4.07
2023-04-14T15:06:55.048Z,5.55
2023-04-14T15:09:28.345Z,9.55
2023-04-14T15:11:58.276Z,2.80
2023-04-14T15:14:27.350Z,4.28
2023-04-14T15:16:56.796Z,6.15
2023-04-14T15:19:25.863Z,3.83
2023-04-14T15:21:55.073Z,7.95
2023-04-14T15:24:25.705Z,10.88
2023-04-14T15:26:54.811Z,9.45
2023-04-14T15:29:25.188Z,4.85
2023-04-14T15:31:54.098Z,6.47
2023-04-14T15:34:24.194Z,6.38
2023-04-14T15:36:53.552Z,9.90
2023-04-14T15:39:22.604Z,9.95
2023-04-14T15:41:53.596Z,6.40
2023-04-14T15:44:22.755Z,4.93
2023-04-14T15:46:51.574Z,23.30
2023-04-14T15:49:23.073Z,16.63
2023-04-14T15:51:52.941Z,6.47
2023-04-14T15:54:22.290Z,7.55
2023-04-14T15:56:53.998Z,12.68
2023-04-14T15:59:24.996Z,7.13
2023-04-14T16:01:53.872Z,18.73
2023-04-14T16:04:23.392Z,12.50
2023-04-14T16:06:52.639Z,9.00
2023-04-14T16:09:21.633Z,11.65
2023-04-14T16:11:52.545Z,11.63
2023-04-14T16:16:52.207Z,15.20
2023-04-14T16:19:21.706Z,6.00
2023-04-14T16:21:51.729Z,12.32
2023-04-14T16:24:21.531Z,9.38
2023-04-14T16:26:50.513Z,7.57
2023-04-14T16:29:19.467Z,10.68
2023-04-14T16:31:49.567Z,5.57
2023-04-14T16:34:20.574Z,15.85
2023-04-14T16:36:49.626Z,7.82
2023-04-14T16:39:18.530Z,11.02
2023-04-14T16:41:48.492Z,8.40
2023-04-14T16:44:17.577Z,5.63
2023-04-14T16:46:46.622Z,6.68
2023-04-14T16:49:17.549Z,12.80
2023-04-14T16:51:46.663Z,7.07
2023-04-14T16:54:15.605Z,6.50
2023-04-14T16:56:45.728Z,8.35
2023-04-14T16:59:14.807Z,16.50
2023-04-14T17:01:44.930Z,11.55
2023-04-14T17:04:14.325Z,15.65
2023-04-14T17:07:07.328Z,8.80
2023-04-14T17:09:36.565Z,12.73
2023-04-14T17:12:05.795Z,8.40
2023-04-14T17:14:35.636Z,8.13
2023-04-14T17:17:04.731Z,8.98
2023-04-14T17:19:33.873Z,12.68
2023-04-14T17:22:04.428Z,18.63
2023-04-14T17:24:33.811Z,14.80
2023-04-14T17:27:02.770Z,13.32
2023-04-14T17:29:31.859Z,8.95
2023-04-14T17:32:01.206Z,13.18
2023-04-14T17:34:30.844Z,8.13
2023-04-14T17:37:00.787Z,11.25
2023-04-14T17:39:31.246Z,11.18
2023-04-14T17:42:00.728Z,7.90
2023-04-14T17:44:33.299Z,8.52
2023-04-14T17:47:03.730Z,7.95
2023-04-14T17:49:33.786Z,10.80
2023-04-14T17:52:17.719Z,8.05
2023-04-14T17:54:49.950Z,9.00
2023-04-14T17:57:18.921Z,14.32
2023-04-14T17:59:48.665Z,10.40
2023-04-14T18:02:17.965Z,8.77
2023-04-14T18:04:47.420Z,9.10
2023-04-14T18:07:16.819Z,10.15
2023-04-14T18:09:46.643Z,8.57
2023-04-14T18:12:17.085Z,9.75
2023-04-14T18:17:14.978Z,11.55
2023-04-14T18:19:43.620Z,10.70
2023-04-14T18:22:12.631Z,8.32
2023-04-14T18:29:46.786Z,11.13
2023-04-14T18:34:44.983Z,9.15
2023-04-14T18:37:15.789Z,12.02
2023-04-14T18:39:45.575Z,11.48
2023-04-14T18:42:15.484Z,11.27
2023-04-14T18:44:44.449Z,13.25
2023-04-14T18:47:15.917Z,14.10
2023-04-14T18:49:44.420Z,10.82
2023-04-14T18:52:13.324Z,9.57
2023-04-14T18:54:42.489Z,14.77
2023-04-14T18:57:11.443Z,11.65
2023-04-14T18:59:40.453Z,13.70
2023-04-14T19:02:13.194Z,10.00
2023-04-14T19:04:43.344Z,9.95
2023-04-14T19:07:12.362Z,13.10
2023-04-14T19:09:41.238Z,11.57
2023-04-14T19:12:21.666Z,14.63
2023-04-14T19:14:54.701Z,11.48
2023-04-14T19:17:23.650Z,13.48
2023-04-14T19:19:53.735Z,10.65
2023-04-14T19:24:51.596Z,10.20
2023-04-14T19:27:20.704Z,10.95
2023-04-14T19:29:49.672Z,12.32
2023-04-14T19:32:18.617Z,12.00
2023-04-14T19:34:47.495Z,10.15
2023-04-14T19:37:18.438Z,11.82
2023-04-14T19:39:47.495Z,15.38
2023-04-14T19:42:16.541Z,13.07
2023-04-14T19:44:45.461Z,10.32
2023-04-14T19:47:15.070Z,9.50
2023-04-14T19:49:43.641Z,22.95
2023-04-14T19:52:12.568Z,9.98
2023-04-14T19:54:42.905Z,12.15
2023-04-14T19:57:12.246Z,10.98
2023-04-14T19:59:41.182Z,10.73
2023-04-14T20:02:13.324Z,11.43
2023-04-14T20:04:42.148Z,12.38
2023-04-14T20:07:11.110Z,12.60
2023-04-14T20:09:44.992Z,9.48
2023-04-14T20:12:15.564Z,12.75
2023-04-14T20:14:45.022Z,9.98
2023-04-14T20:17:13.898Z,11.25
2023-04-14T20:19:44.675Z,12.13
2023-04-14T20:22:13.647Z,11.13
2023-04-14T20:24:42.499Z,9.27
2023-04-14T20:27:11.616Z,13.52
2023-04-14T20:29:41.943Z,11.25
2023-04-14T20:34:40.129Z,11.80
2023-04-14T20:37:09.257Z,10.38
2023-04-14T20:39:38.316Z,10.45
2023-04-14T20:42:07.509Z,8.48
2023-04-14T20:44:36.449Z,11.05
2023-04-14T20:47:06.802Z,13.38
2023-04-14T20:49:35.462Z,11.30
2023-04-14T20:52:05.428Z,12.10
2023-04-14T20:54:34.315Z,10.43
2023-04-14T20:57:05.580Z,12.07
2023-04-14T20:59:34.872Z,11.68
2023-04-14T21:02:03.898Z,9.55
2023-04-14T21:04:34.943Z,12.45
2023-04-14T21:07:04.154Z,8.85
2023-04-14T21:09:33.705Z,9.75
2023-04-14T21:12:15.221Z,9.93
2023-04-14T21:15:42.420Z,11.43
2023-04-14T21:17:35.521Z,11.18
2023-04-14T21:20:06.791Z,16.17
2023-04-14T21:22:36.394Z,10.48
2023-04-14T21:25:05.924Z,12.35
2023-04-14T21:27:34.892Z,10.80
2023-04-14T21:30:04.732Z,10.93
2023-04-14T21:32:34.254Z,11.80
2023-04-14T21:35:03.209Z,8.77
2023-04-14T21:37:34.821Z,9.77
2023-04-14T21:42:35.721Z,10.23
2023-04-14T21:45:06.422Z,9.57
2023-04-14T21:47:35.623Z,12.40
2023-04-14T21:50:04.599Z,11.95
2023-04-14T21:52:34.554Z,11.90
2023-04-14T21:57:48.589Z,12.57
2023-04-14T22:00:18.688Z,11.38
2023-04-14T22:02:47.929Z,10.98
2023-04-14T22:05:17.062Z,11.75
2023-04-14T22:07:47.067Z,9.75
2023-04-14T22:12:45.834Z,11.23
2023-04-14T22:15:14.853Z,13.18
2023-04-14T22:17:44.178Z,10.73
2023-04-14T22:20:14.068Z,11.15
2023-04-14T22:22:42.498Z,18.65
2023-04-14T22:25:12.980Z,12.43
2023-04-14T22:27:42.074Z,11.07
2023-04-14T22:30:12.187Z,11.50
2023-04-14T22:32:41.620Z,10.30
2023-04-14T22:35:10.788Z,11.32
2023-04-14T22:37:39.267Z,9.82
2023-04-14T22:40:09.464Z,11.23
2023-04-14T22:42:39.898Z,9.73
2023-04-14T22:47:38.800Z,10.02
2023-04-14T22:50:09.182Z,11.60
2023-04-14T22:55:07.756Z,10.07
2023-04-14T22:57:36.907Z,11.35
2023-04-14T23:00:10.288Z,9.85
2023-04-14T23:02:41.278Z,10.73
2023-04-14T23:05:12.710Z,11.30
2023-04-14T23:07:41.365Z,12.20
2023-04-14T23:10:11.259Z,14.10
2023-04-14T23:12:40.340Z,15.15
2023-04-14T23:15:10.976Z,9.77
2023-04-14T23:17:39.992Z,11.77
2023-04-14T23:20:10.242Z,10.63
2023-04-14T23:22:39.644Z,9.52
2023-04-14T23:25:09.387Z,11.18
2023-04-14T23:27:38.326Z,10.80
2023-04-14T23:30:08.885Z,9.80
2023-04-14T23:32:39.358Z,9.27
2023-04-14T23:35:09.461Z,10.90
2023-04-14T23:37:38.977Z,11.25
2023-04-14T23:40:09.295Z,10.00
2023-04-14T23:45:08.280Z,10.50
2023-04-14T23:50:09.772Z,12.00
2023-04-14T23:52:38.566Z,10.20
2023-04-14T23:55:07.981Z,12.63
2023-04-14T23:57:37.593Z,12.95
